createdAt,value
2023-05-08T00:00:18.005Z,18.20
2023-05-08T00:02:44.715Z,14.65
2023-05-08T00:05:11.426Z,15.52
2023-05-08T00:07:38.193Z,14.15
2023-05-08T00:10:06.596Z,16.20
2023-05-08T00:12:33.393Z,12.57
2023-05-08T00:15:00.832Z,16.85
2023-05-08T00:17:27.465Z,12.35
2023-05-08T00:19:54.127Z,11.90
2023-05-08T00:22:21.064Z,16.42
2023-05-08T00:24:47.793Z,13.00
2023-05-08T00:27:14.672Z,13.68
2023-05-08T00:29:41.379Z,12.25
2023-05-08T00:32:08.202Z,14.23
2023-05-08T00:34:35.429Z,13.40
2023-05-08T00:37:03.594Z,15.02
2023-05-08T00:39:30.756Z,15.00
2023-05-08T00:41:57.392Z,14.00
2023-05-08T00:44:23.991Z,13.80
2023-05-08T00:46:51.126Z,18.00
2023-05-08T00:49:18.325Z,14.45
2023-05-08T00:51:47.206Z,14.02
2023-05-08T00:54:14.378Z,13.77
2023-05-08T00:56:41.211Z,13.25
2023-05-08T00:59:10.332Z,13.27
2023-05-08T01:01:37.877Z,14.00
2023-05-08T01:04:05.131Z,13.70
2023-05-08T01:06:32.003Z,13.60
2023-05-08T01:08:58.819Z,14.27
2023-05-08T01:11:31.204Z,14.38
2023-05-08T01:14:20.138Z,13.38
2023-05-08T01:17:04.928Z,14.90
2023-05-08T01:19:58.955Z,13.35
2023-05-08T01:22:49.439Z,14.90
2023-05-08T01:25:53.640Z,14.20
2023-05-08T01:31:32.064Z,14.60
2023-05-08T01:34:23.637Z,15.30
2023-05-08T01:36:56.118Z,15.65
2023-05-08T01:39:28.730Z,16.03
2023-05-08T01:42:03.092Z,14.63
2023-05-08T01:44:37.369Z,15.50
2023-05-08T01:47:10.057Z,16.13
2023-05-08T01:49:46.503Z,18.70
2023-05-08T01:52:21.862Z,18.70
2023-05-08T01:55:24.693Z,17.80
2023-05-08T01:57:55.029Z,18.83
2023-05-08T02:00:25.538Z,15.48
2023-05-08T02:02:54.425Z,15.73
2023-05-08T02:05:22.833Z,16.08
2023-05-08T02:07:50.566Z,16.88
2023-05-08T02:10:17.861Z,16.85
2023-05-08T02:12:45.676Z,16.30
2023-05-08T02:15:14.717Z,17.38
2023-05-08T02:17:43.525Z,17.42
2023-05-08T02:20:15.007Z,20.42
2023-05-08T02:22:49.176Z,19.67
2023-05-08T02:25:16.618Z,21.23
2023-05-08T02:27:46.555Z,20.95
2023-05-08T02:30:15.561Z,23.92
2023-05-08T02:32:47.878Z,22.33
2023-05-08T02:35:18.184Z,24.08
2023-05-08T02:37:47.959Z,26.35
2023-05-08T02:40:16.893Z,27.17
2023-05-08T02:42:44.356Z,27.20
2023-05-08T02:45:12.372Z,29.23
2023-05-08T02:48:04.810Z,32.70
2023-05-08T02:50:43.482Z,29.42
2023-05-08T02:53:16.221Z,30.58
2023-05-08T02:56:00.346Z,29.90
2023-05-08T02:58:38.434Z,37.30
2023-05-08T03:01:11.525Z,30.65
2023-05-08T03:03:44.781Z,130.27
2023-05-08T03:08:51.864Z,88.43
2023-05-08T03:11:22.704Z,88.10
2023-05-08T03:13:51.558Z,58.95
2023-05-08T03:16:22.124Z,72.53
2023-05-08T03:19:23.024Z,45.70
2023-05-08T03:21:52.054Z,121.50
2023-05-08T03:24:20.503Z,303.73
2023-05-08T03:26:47.140Z,137.63
2023-05-08T03:29:15.695Z,96.38
2023-05-08T03:31:43.568Z,160.77
2023-05-08T03:34:12.560Z,172.48
2023-05-08T03:36:39.929Z,64.22
2023-05-08T03:39:07.746Z,218.43
2023-05-08T03:41:34.679Z,81.95
2023-05-08T03:44:03.388Z,107.43
2023-05-08T03:46:32.093Z,95.75
2023-05-08T03:49:00.479Z,63.10
2023-05-08T03:51:28.473Z,43.67
2023-05-08T03:53:55.145Z,44.88
2023-05-08T03:56:22.376Z,42.10
2023-05-08T03:59:03.016Z,44.38
2023-05-08T04:01:40.807Z,44.10
2023-05-08T04:04:17.725Z,45.55
2023-05-08T04:07:13.677Z,45.88
2023-05-08T04:09:51.627Z,46.50
2023-05-08T04:12:22.051Z,45.22
2023-05-08T04:14:56.937Z,48.78
2023-05-08T04:17:34.868Z,48.35
2023-05-08T04:20:04.513Z,47.63
2023-05-08T04:22:35.705Z,46.25
2023-05-08T04:25:05.561Z,50.10
2023-05-08T04:27:32.485Z,48.92
2023-05-08T04:29:59.613Z,49.88
2023-05-08T04:32:27.751Z,51.42
2023-05-08T04:34:55.442Z,48.97
2023-05-08T04:37:31.400Z,53.88
2023-05-08T04:39:58.655Z,53.90
2023-05-08T04:42:28.561Z,50.22
2023-05-08T04:44:55.223Z,48.50
2023-05-08T04:47:22.168Z,52.22
2023-05-08T04:49:48.781Z,48.80
2023-05-08T04:52:15.336Z,50.15
2023-05-08T04:54:41.990Z,49.90
2023-05-08T04:57:08.606Z,53.28
2023-05-08T04:59:35.255Z,55.83
2023-05-08T05:02:02.712Z,54.65
2023-05-08T05:04:30.181Z,52.17
2023-05-08T05:07:03.361Z,50.22
2023-05-08T05:09:30.090Z,51.33
2023-05-08T05:11:58.171Z,54.10
2023-05-08T05:14:25.011Z,50.03
2023-05-08T05:16:51.555Z,53.70
2023-05-08T05:19:19.031Z,51.83
2023-05-08T05:21:46.456Z,54.47
2023-05-08T05:24:13.147Z,54.80
2023-05-08T05:26:39.890Z,52.53
2023-05-08T05:29:06.510Z,50.53
2023-05-08T05:31:33.629Z,51.65
2023-05-08T05:34:00.622Z,54.97
2023-05-08T05:36:27.225Z,52.85
2023-05-08T05:38:53.816Z,55.15
2023-05-08T05:41:20.457Z,54.22
2023-05-08T05:43:47.025Z,54.35
2023-05-08T05:46:13.624Z,69.00
2023-05-08T05:48:40.231Z,82.38
2023-05-08T05:51:06.877Z,82.40
2023-05-08T05:53:33.463Z,79.18
2023-05-08T05:56:00.045Z,87.13
2023-05-08T05:58:28.466Z,79.75
2023-05-08T06:00:55.180Z,93.55
2023-05-08T06:03:22.172Z,92.72
2023-05-08T06:05:48.799Z,92.93
2023-05-08T06:08:17.907Z,89.45
2023-05-08T06:10:44.683Z,89.00
2023-05-08T06:13:11.437Z,95.13
2023-05-08T06:15:38.127Z,87.03
2023-05-08T06:18:04.926Z,88.15
2023-05-08T06:20:31.527Z,78.22
2023-05-08T06:22:58.187Z,76.22
2023-05-08T06:25:25.450Z,76.03
2023-05-08T06:27:52.034Z,72.13
2023-05-08T06:30:18.636Z,75.18
2023-05-08T06:32:45.374Z,67.03
2023-05-08T06:35:12.522Z,73.55
2023-05-08T06:37:39.328Z,68.93
2023-05-08T06:42:36.463Z,69.43
2023-05-08T06:45:04.252Z,67.20
2023-05-08T06:47:31.055Z,67.70
2023-05-08T06:49:58.036Z,72.55
2023-05-08T06:52:25.772Z,75.32
2023-05-08T06:54:52.687Z,71.50
2023-05-08T06:57:19.289Z,74.80
2023-05-08T06:59:45.866Z,71.57
2023-05-08T07:02:12.558Z,73.60
2023-05-08T07:04:39.288Z,71.70
2023-05-08T07:07:06.941Z,74.88
2023-05-08T07:09:33.622Z,74.45
2023-05-08T07:12:00.200Z,76.32
2023-05-08T07:14:27.634Z,71.43
2023-05-08T07:16:54.565Z,76.47
2023-05-08T07:19:22.625Z,71.43
2023-05-08T07:21:49.479Z,75.15
2023-05-08T07:24:16.281Z,65.90
2023-05-08T07:26:42.894Z,70.82
2023-05-08T07:29:09.404Z,75.45
2023-05-08T07:31:39.535Z,70.65
2023-05-08T07:34:07.364Z,74.80
2023-05-08T07:36:34.059Z,75.10
2023-05-08T07:39:00.617Z,78.10
2023-05-08T07:41:27.234Z,72.10
2023-05-08T07:43:53.932Z,76.38
2023-05-08T07:46:21.001Z,74.22
2023-05-08T07:48:47.698Z,69.13
2023-05-08T07:51:14.788Z,77.00
2023-05-08T07:53:41.473Z,77.50
2023-05-08T07:56:08.614Z,81.60
2023-05-08T07:58:35.188Z,73.25
2023-05-08T08:01:02.213Z,74.30
2023-05-08T08:03:29.412Z,73.95
2023-05-08T08:05:56.276Z,66.07
2023-05-08T08:08:22.944Z,69.10
2023-05-08T08:10:50.266Z,65.25
2023-05-08T08:13:17.809Z,67.30
2023-05-08T08:15:44.480Z,60.35
2023-05-08T08:18:11.266Z,65.30
2023-05-08T08:20:38.085Z,63.90
2023-05-08T08:23:04.654Z,65.78
2023-05-08T08:25:31.265Z,69.80
2023-05-08T08:28:02.461Z,71.22
2023-05-08T08:30:29.259Z,78.00
2023-05-08T08:32:55.947Z,73.85
2023-05-08T08:35:29.274Z,81.05
2023-05-08T08:37:58.964Z,74.18
2023-05-08T08:40:25.876Z,74.07
2023-05-08T08:42:52.496Z,76.13
2023-05-08T08:45:19.130Z,73.40
2023-05-08T08:47:48.399Z,70.05
2023-05-08T08:50:16.035Z,62.17
2023-05-08T08:53:01.045Z,58.47
2023-05-08T08:55:28.026Z,56.75
2023-05-08T08:58:08.954Z,54.13
2023-05-08T09:00:37.369Z,55.92
2023-05-08T09:03:06.990Z,52.90
2023-05-08T09:05:34.164Z,50.30
2023-05-08T09:08:01.392Z,51.63
2023-05-08T09:10:28.237Z,46.58
2023-05-08T09:12:54.938Z,42.22
2023-05-08T09:15:22.198Z,39.53
2023-05-08T09:17:48.866Z,39.25
2023-05-08T09:20:16.682Z,37.75
2023-05-08T09:22:44.596Z,38.63
2023-05-08T09:25:11.648Z,33.63
2023-05-08T09:27:38.532Z,31.75
2023-05-08T09:30:07.712Z,31.42
2023-05-08T09:32:37.288Z,28.08
2023-05-08T09:35:05.662Z,26.77
2023-05-08T09:37:32.372Z,26.05
2023-05-08T09:40:15.186Z,26.70
2023-05-08T09:42:41.838Z,29.98
2023-05-08T09:45:09.205Z,27.08
2023-05-08T09:47:37.465Z,23.83
2023-05-08T09:50:07.066Z,25.67
2023-05-08T09:52:34.757Z,25.52
2023-05-08T09:55:06.116Z,26.00
2023-05-08T09:57:36.504Z,27.15
2023-05-08T10:00:11.027Z,24.58
2023-05-08T10:02:40.147Z,24.27
2023-05-08T10:05:27.540Z,24.80
2023-05-08T10:07:54.329Z,28.33
2023-05-08T10:10:26.848Z,32.15
2023-05-08T10:12:56.196Z,27.85
2023-05-08T10:15:29.496Z,28.65
2023-05-08T10:20:31.961Z,30.38
2023-05-08T10:22:59.705Z,31.65
2023-05-08T10:25:31.859Z,35.75
2023-05-08T10:28:16.364Z,35.65
2023-05-08T10:30:50.140Z,31.58
2023-05-08T10:33:21.197Z,38.17
2023-05-08T10:35:48.341Z,30.90
2023-05-08T10:38:16.627Z,36.00
2023-05-08T10:40:43.543Z,31.75
2023-05-08T10:43:11.340Z,33.30
2023-05-08T10:45:38.478Z,36.20
2023-05-08T10:48:19.379Z,31.55
2023-05-08T10:51:11.096Z,33.75
2023-05-08T10:54:04.918Z,30.45
2023-05-08T10:58:59.285Z,38.10
2023-05-08T11:01:27.096Z,37.70
2023-05-08T11:03:56.119Z,41.83
2023-05-08T11:06:46.849Z,40.45
2023-05-08T11:09:27.079Z,43.45
2023-05-08T11:12:08.319Z,41.70
2023-05-08T11:14:38.264Z,42.45
2023-05-08T11:17:05.965Z,48.92
2023-05-08T11:19:32.848Z,47.00
2023-05-08T11:22:15.632Z,45.78
2023-05-08T11:25:11.780Z,42.03
2023-05-08T11:27:50.697Z,44.38
2023-05-08T11:30:35.157Z,47.45
2023-05-08T11:33:05.254Z,42.80
2023-05-08T11:35:43.160Z,39.33
2023-05-08T11:38:18.743Z,44.53
2023-05-08T11:41:00.728Z,42.53
2023-05-08T11:43:33.654Z,49.10
2023-05-08T11:46:02.060Z,47.30
2023-05-08T11:48:28.894Z,49.20
2023-05-08T11:50:55.656Z,46.40
2023-05-08T11:53:22.496Z,40.03
2023-05-08T11:55:49.837Z,45.58
2023-05-08T11:58:18.550Z,45.30
2023-05-08T12:00:46.458Z,43.85
2023-05-08T12:03:20.970Z,42.47
2023-05-08T12:05:49.058Z,41.50
2023-05-08T12:08:17.811Z,47.45
2023-05-08T12:10:47.401Z,45.38
2023-05-08T12:13:22.201Z,45.30
2023-05-08T12:15:59.915Z,43.55
2023-05-08T12:18:28.783Z,45.95
2023-05-08T12:21:00.635Z,47.63
2023-05-08T12:23:29.524Z,43.90
2023-05-08T12:26:00.205Z,47.25
2023-05-08T12:28:27.304Z,47.72
2023-05-08T12:30:54.477Z,49.90
2023-05-08T12:33:21.869Z,45.88
2023-05-08T12:35:48.716Z,48.47
2023-05-08T12:38:15.335Z,49.40
2023-05-08T12:40:46.679Z,49.17
2023-05-08T12:43:13.549Z,51.97
2023-05-08T12:45:42.482Z,48.50
2023-05-08T12:48:15.478Z,55.90
2023-05-08T12:50:44.312Z,49.30
2023-05-08T12:53:12.728Z,47.63
2023-05-08T12:55:51.822Z,43.97
2023-05-08T12:58:19.180Z,42.50
2023-05-08T13:00:47.941Z,44.05
2023-05-08T13:03:25.338Z,43.78
2023-05-08T13:05:53.476Z,40.72
2023-05-08T13:08:20.268Z,42.85
2023-05-08T13:10:51.045Z,43.78
2023-05-08T13:13:19.751Z,45.88
2023-05-08T13:15:46.787Z,43.47
2023-05-08T13:18:14.076Z,50.03
2023-05-08T13:20:41.288Z,49.85
2023-05-08T13:23:08.963Z,46.05
2023-05-08T13:25:37.417Z,42.45
2023-05-08T13:28:05.013Z,41.28
2023-05-08T13:30:31.664Z,39.47
2023-05-08T13:32:58.290Z,37.08
2023-05-08T13:35:25.392Z,35.38
2023-05-08T13:37:51.971Z,35.70
2023-05-08T13:40:18.833Z,37.30
2023-05-08T13:42:45.469Z,35.28
2023-05-08T13:45:14.881Z,39.22
2023-05-08T13:47:42.555Z,35.35
2023-05-08T13:50:10.552Z,34.80
2023-05-08T13:52:38.310Z,33.90
2023-05-08T13:55:06.596Z,31.55
2023-05-08T13:57:33.480Z,29.95
2023-05-08T14:00:00.206Z,31.55
2023-05-08T14:02:27.180Z,28.92
2023-05-08T14:04:54.190Z,27.38
2023-05-08T14:07:20.820Z,32.00
2023-05-08T14:09:47.659Z,27.88
2023-05-08T14:12:14.717Z,30.95
2023-05-08T14:14:41.450Z,29.95
2023-05-08T14:17:08.560Z,33.95
2023-05-08T14:19:35.216Z,30.70
2023-05-08T14:22:02.196Z,31.55
2023-05-08T14:24:28.812Z,33.60
2023-05-08T14:26:55.419Z,32.13
2023-05-08T14:29:22.095Z,31.05
2023-05-08T14:31:48.867Z,32.67
2023-05-08T14:34:15.549Z,29.52
2023-05-08T14:36:42.127Z,28.55
2023-05-08T14:39:09.129Z,29.95
2023-05-08T14:41:36.962Z,31.20
2023-05-08T14:44:03.576Z,28.45
2023-05-08T14:46:30.400Z,31.63
2023-05-08T14:48:57.138Z,31.10
2023-05-08T14:51:23.704Z,28.42
2023-05-08T14:53:50.414Z,33.58
2023-05-08T14:56:19.111Z,30.75
2023-05-08T14:58:46.123Z,32.22
2023-05-08T15:01:12.704Z,26.98
2023-05-08T15:03:39.412Z,29.45
2023-05-08T15:06:07.405Z,26.08
2023-05-08T15:08:34.043Z,28.05
2023-05-08T15:11:00.798Z,28.42
2023-05-08T15:13:27.491Z,29.30
2023-05-08T15:15:54.262Z,23.15
2023-05-08T15:18:20.970Z,28.17
2023-05-08T15:20:47.541Z,26.45
2023-05-08T15:23:14.313Z,24.77
2023-05-08T15:25:40.941Z,25.77
2023-05-08T15:28:07.607Z,27.17
2023-05-08T15:30:34.250Z,22.05
2023-05-08T15:33:00.914Z,24.17
2023-05-08T15:35:28.038Z,19.65
2023-05-08T15:37:54.603Z,20.77
2023-05-08T15:40:21.342Z,19.95
2023-05-08T15:42:47.918Z,26.00
2023-05-08T15:45:15.908Z,17.88
2023-05-08T15:47:42.665Z,19.90
2023-05-08T15:50:09.630Z,17.33
2023-05-08T15:52:36.171Z,20.75
2023-05-08T15:55:03.050Z,18.13
2023-05-08T15:57:29.636Z,20.17
2023-05-08T15:59:56.228Z,16.40
2023-05-08T16:02:22.977Z,18.35
2023-05-08T16:04:49.698Z,19.52
2023-05-08T16:07:16.331Z,18.13
2023-05-08T16:09:43.276Z,16.75
2023-05-08T16:12:09.866Z,19.63
2023-05-08T16:14:36.587Z,19.73
2023-05-08T16:17:03.765Z,17.90
2023-05-08T16:19:30.530Z,16.83
2023-05-08T16:21:57.191Z,16.15
2023-05-08T16:24:23.771Z,16.23
2023-05-08T16:26:50.626Z,19.92
2023-05-08T16:29:17.177Z,16.35
2023-05-08T16:31:43.825Z,15.23
2023-05-08T16:34:10.484Z,14.38
2023-05-08T16:36:37.215Z,14.93
2023-05-08T16:39:04.012Z,15.73
2023-05-08T16:41:30.649Z,14.57
2023-05-08T16:43:57.190Z,14.95
2023-05-08T16:46:29.839Z,13.18
2023-05-08T16:48:57.392Z,12.18
2023-05-08T16:51:23.977Z,10.73
2023-05-08T16:53:50.680Z,8.98
2023-05-08T16:56:17.259Z,13.07
2023-05-08T16:58:43.841Z,12.18
2023-05-08T17:01:11.982Z,9.88
2023-05-08T17:03:38.727Z,11.63
2023-05-08T17:06:08.935Z,10.95
2023-05-08T17:08:35.563Z,11.45
2023-05-08T17:11:02.117Z,9.70
2023-05-08T17:13:28.810Z,7.70
2023-05-08T17:15:56.119Z,11.68
2023-05-08T17:18:22.747Z,10.57
2023-05-08T17:20:50.987Z,10.93
2023-05-08T17:23:17.667Z,9.77
2023-05-08T17:25:44.485Z,10.32
2023-05-08T17:28:11.227Z,9.77
2023-05-08T17:30:38.313Z,12.50
2023-05-08T17:33:05.216Z,19.73
2023-05-08T17:35:35.683Z,19.30
2023-05-08T17:38:02.581Z,18.30
2023-05-08T17:40:29.959Z,23.20
2023-05-08T17:42:56.688Z,27.50
2023-05-08T17:45:24.128Z,28.38
2023-05-08T17:47:50.970Z,28.17
2023-05-08T17:50:18.455Z,19.98
2023-05-08T17:52:45.250Z,22.50
2023-05-08T17:55:12.043Z,24.85
2023-05-08T17:57:38.733Z,26.17
2023-05-08T18:00:08.572Z,27.52
2023-05-08T18:02:35.341Z,29.48
2023-05-08T18:05:02.250Z,31.38
2023-05-08T18:07:29.071Z,34.58
2023-05-08T18:09:56.270Z,30.25
2023-05-08T18:12:23.156Z,25.45
2023-05-08T18:14:49.851Z,27.17
2023-05-08T18:17:19.543Z,29.85
2023-05-08T18:19:46.673Z,27.45
2023-05-08T18:22:13.635Z,31.95
2023-05-08T18:24:40.458Z,30.77
2023-05-08T18:27:07.376Z,29.20
2023-05-08T18:29:34.190Z,25.23
2023-05-08T18:32:00.796Z,23.08
2023-05-08T18:34:27.472Z,27.55
2023-05-08T18:36:54.933Z,24.67
2023-05-08T18:39:22.863Z,28.52
2023-05-08T18:41:52.550Z,28.42
2023-05-08T18:44:19.273Z,28.05
2023-05-08T18:46:46.581Z,29.23
2023-05-08T18:49:13.264Z,24.73
2023-05-08T18:51:39.956Z,27.45
2023-05-08T18:54:06.817Z,26.02
2023-05-08T18:56:34.332Z,26.15
2023-05-08T18:59:02.912Z,25.85
2023-05-08T19:01:29.710Z,26.00
2023-05-08T19:03:58.459Z,29.17
2023-05-08T19:06:25.270Z,25.88
2023-05-08T19:08:52.239Z,22.95
2023-05-08T19:11:19.019Z,25.17
2023-05-08T19:13:45.565Z,23.48
2023-05-08T19:16:12.139Z,25.05
2023-05-08T19:18:38.856Z,22.55
2023-05-08T19:21:06.534Z,24.15
2023-05-08T19:23:33.190Z,24.60
2023-05-08T19:25:59.855Z,23.27
2023-05-08T19:28:26.390Z,24.83
2023-05-08T19:30:53.002Z,24.90
2023-05-08T19:33:22.472Z,23.40
2023-05-08T19:35:49.078Z,21.33
2023-05-08T19:38:15.745Z,26.08
2023-05-08T19:40:55.409Z,21.20
2023-05-08T19:43:24.564Z,19.52
2023-05-08T19:45:51.196Z,18.08
2023-05-08T19:48:20.092Z,19.65
2023-05-08T19:50:46.930Z,20.58
2023-05-08T19:53:13.720Z,17.77
2023-05-08T19:55:40.686Z,16.33
2023-05-08T19:58:07.268Z,17.70
2023-05-08T20:00:33.952Z,17.20
2023-05-08T20:03:00.640Z,17.05
2023-05-08T20:05:27.511Z,20.55
2023-05-08T20:07:54.193Z,19.25
2023-05-08T20:10:20.835Z,17.95
2023-05-08T20:12:47.464Z,18.85
2023-05-08T20:15:14.279Z,20.15
2023-05-08T20:17:41.139Z,22.23
2023-05-08T20:20:08.530Z,18.70
2023-05-08T20:22:35.207Z,17.95
2023-05-08T20:25:04.216Z,18.13
2023-05-08T20:27:34.107Z,18.65
2023-05-08T20:30:00.769Z,19.88
2023-05-08T20:32:27.357Z,19.00
2023-05-08T20:34:53.999Z,19.00
2023-05-08T20:37:20.641Z,17.95
2023-05-08T20:39:47.216Z,18.63
2023-05-08T20:42:13.913Z,18.90
2023-05-08T20:44:40.721Z,20.50
2023-05-08T20:47:07.290Z,19.63
2023-05-08T20:49:33.912Z,17.15
2023-05-08T20:52:00.464Z,17.73
2023-05-08T20:54:29.214Z,19.00
2023-05-08T20:56:55.816Z,20.58
2023-05-08T20:59:23.491Z,19.65
2023-05-08T21:01:50.436Z,27.70
2023-05-08T21:04:17.120Z,17.60
2023-05-08T21:06:43.702Z,16.33
2023-05-08T21:09:10.335Z,17.02
2023-05-08T21:11:36.877Z,13.55
2023-05-08T21:14:03.479Z,15.70
2023-05-08T21:16:30.098Z,12.90
2023-05-08T21:18:58.470Z,14.90
2023-05-08T21:21:25.312Z,13.77
2023-05-08T21:23:51.921Z,13.35
2023-05-08T21:26:20.057Z,18.95
2023-05-08T21:28:46.685Z,16.50
2023-05-08T21:31:13.282Z,14.07
2023-05-08T21:33:39.915Z,15.00
2023-05-08T21:36:06.678Z,12.57
2023-05-08T21:38:34.120Z,15.02
2023-05-08T21:41:08.124Z,13.05
2023-05-08T21:43:38.853Z,14.00
2023-05-08T21:46:07.219Z,14.70
2023-05-08T21:48:34.213Z,16.42
2023-05-08T21:51:01.634Z,12.00
2023-05-08T21:53:28.337Z,11.98
2023-05-08T21:55:54.981Z,10.40
2023-05-08T21:58:21.595Z,13.50
2023-05-08T22:00:48.246Z,11.43
2023-05-08T22:03:14.992Z,12.60
2023-05-08T22:05:41.734Z,12.30
2023-05-08T22:08:08.311Z,15.88
2023-05-08T22:10:37.572Z,11.02
2023-05-08T22:13:04.632Z,13.55
2023-05-08T22:15:31.310Z,14.35
2023-05-08T22:17:59.146Z,11.13
2023-05-08T22:20:26.142Z,11.23
2023-05-08T22:22:52.776Z,9.23
2023-05-08T22:25:21.699Z,11.93
2023-05-08T22:27:48.612Z,12.40
2023-05-08T22:30:15.247Z,13.60
2023-05-08T22:32:42.780Z,12.68
2023-05-08T22:35:09.557Z,15.60
2023-05-08T22:37:36.772Z,11.88
2023-05-08T22:40:03.627Z,8.85
2023-05-08T22:42:30.274Z,10.60
2023-05-08T22:44:57.071Z,11.05
2023-05-08T22:47:23.705Z,12.07
2023-05-08T22:49:50.594Z,12.05
2023-05-08T22:52:17.289Z,14.98
2023-05-08T22:54:43.858Z,12.15
2023-05-08T22:57:10.540Z,13.70
2023-05-08T22:59:37.273Z,13.05
2023-05-08T23:02:03.860Z,17.52
2023-05-08T23:04:30.696Z,15.52
2023-05-08T23:06:57.319Z,13.75
2023-05-08T23:09:23.958Z,12.55
2023-05-08T23:11:51.410Z,13.95
2023-05-08T23:14:18.009Z,10.95
2023-05-08T23:16:45.941Z,11.77
2023-05-08T23:19:12.612Z,10.65
2023-05-08T23:21:39.159Z,10.50
2023-05-08T23:24:06.041Z,11.20
2023-05-08T23:26:32.852Z,14.27
2023-05-08T23:28:59.473Z,15.30
2023-05-08T23:31:27.564Z,11.45
2023-05-08T23:33:54.205Z,12.57
2023-05-08T23:36:20.858Z,11.80
2023-05-08T23:38:47.491Z,12.48
2023-05-08T23:41:14.078Z,11.35
2023-05-08T23:43:40.660Z,13.85
2023-05-08T23:46:07.306Z,13.90
2023-05-08T23:48:33.844Z,13.88
2023-05-08T23:51:00.467Z,11.55
2023-05-08T23:53:27.007Z,13.38
2023-05-08T23:55:53.550Z,11.77
2023-05-08T23:58:20.103Z,13.50
